createdAt,value
2018-10-18T00:02:26.062Z,11.50
2018-10-18T00:04:54.332Z,10.80
2018-10-18T00:07:22.920Z,10.90
2018-10-18T00:09:51.496Z,11.20
2018-10-18T00:12:19.849Z,11.40
2018-10-18T00:14:48.127Z,11.50
2018-10-18T00:17:21.754Z,11.20
2018-10-18T00:19:50.009Z,11.30
2018-10-18T00:22:18.301Z,10.80
2018-10-18T00:24:46.597Z,10.60
2018-10-18T00:27:14.838Z,10.40
2018-10-18T00:29:43.221Z,10.40
2018-10-18T00:32:11.665Z,10.60
2018-10-18T00:34:39.943Z,10.90
2018-10-18T00:37:08.170Z,11.10
2018-10-18T00:39:36.648Z,11.30
2018-10-18T00:42:05.311Z,10.90
2018-10-18T00:44:33.509Z,11.10
2018-10-18T00:47:01.788Z,10.80
2018-10-18T00:49:30.065Z,11.10
2018-10-18T00:51:58.407Z,11.30
2018-10-18T00:54:26.592Z,11.40
2018-10-18T00:56:54.902Z,11.50
2018-10-18T00:59:23.134Z,11.50
2018-10-18T01:01:51.448Z,11.50
2018-10-18T01:04:19.831Z,11.30
2018-10-18T01:06:48.216Z,11.30
2018-10-18T01:09:16.452Z,11.20
2018-10-18T01:11:44.743Z,10.60
2018-10-18T01:14:13.071Z,10.30
2018-10-18T01:16:41.416Z,10.10
2018-10-18T01:19:09.693Z,9.80
2018-10-18T01:21:37.943Z,9.90
2018-10-18T01:24:06.398Z,10.00
2018-10-18T01:26:34.534Z,10.10
2018-10-18T01:29:02.772Z,10.20
2018-10-18T01:31:31.026Z,10.10
2018-10-18T01:33:59.224Z,10.20
2018-10-18T01:36:27.498Z,10.20
2018-10-18T01:38:55.769Z,10.20
2018-10-18T01:41:23.950Z,9.90
2018-10-18T01:43:52.134Z,9.80
2018-10-18T01:46:20.325Z,9.60
2018-10-18T01:48:48.571Z,9.50
2018-10-18T01:51:16.841Z,9.70
2018-10-18T01:53:45.144Z,9.70
2018-10-18T01:56:13.582Z,9.90
2018-10-18T01:58:41.707Z,10.30
2018-10-18T02:01:10.184Z,10.50
2018-10-18T02:03:38.465Z,10.10
2018-10-18T02:06:07.038Z,10.00
2018-10-18T02:08:35.273Z,9.80
2018-10-18T02:11:03.592Z,9.60
2018-10-18T02:13:31.884Z,9.80
2018-10-18T02:16:00.112Z,9.60
2018-10-18T02:18:28.442Z,9.50
2018-10-18T02:20:56.761Z,9.50
2018-10-18T02:23:24.965Z,9.50
2018-10-18T02:25:53.256Z,9.40
2018-10-18T02:28:21.492Z,9.60
2018-10-18T02:30:49.794Z,9.80
2018-10-18T02:33:18.037Z,9.70
2018-10-18T02:35:46.323Z,9.80
2018-10-18T02:38:14.597Z,10.10
2018-10-18T02:40:42.805Z,9.80
2018-10-18T02:43:10.990Z,9.50
2018-10-18T02:45:39.192Z,9.50
2018-10-18T02:48:07.472Z,9.50
2018-10-18T02:50:35.628Z,9.50
2018-10-18T02:53:03.839Z,9.30
2018-10-18T02:55:32.032Z,9.00
2018-10-18T02:58:00.233Z,9.10
2018-10-18T03:00:28.429Z,9.50
2018-10-18T03:02:56.648Z,9.70
2018-10-18T03:05:24.962Z,10.00
2018-10-18T03:07:53.247Z,10.20
2018-10-18T03:10:21.497Z,10.00
2018-10-18T03:12:49.674Z,9.50
2018-10-18T03:15:17.937Z,9.40
2018-10-18T03:17:46.364Z,9.30
2018-10-18T03:20:14.615Z,9.20
2018-10-18T03:22:42.916Z,9.20
2018-10-18T03:25:11.469Z,9.50
2018-10-18T03:27:40.085Z,9.70
2018-10-18T03:30:08.781Z,9.90
2018-10-18T03:32:37.092Z,10.10
2018-10-18T03:35:06.438Z,10.30
2018-10-18T03:37:34.620Z,10.30
2018-10-18T03:40:02.990Z,10.00
2018-10-18T03:42:31.240Z,10.00
2018-10-18T03:44:59.465Z,10.20
2018-10-18T03:47:27.668Z,10.20
2018-10-18T03:49:55.941Z,10.30
2018-10-18T03:52:24.152Z,9.90
2018-10-18T03:54:52.416Z,9.90
2018-10-18T03:57:20.704Z,9.50
2018-10-18T03:59:49.085Z,9.20
2018-10-18T04:02:17.169Z,9.40
2018-10-18T04:04:45.405Z,9.10
2018-10-18T04:07:13.671Z,8.80
2018-10-18T04:09:41.950Z,9.00
2018-10-18T04:12:10.189Z,9.30
2018-10-18T04:14:38.321Z,9.20
2018-10-18T04:17:06.596Z,9.00
2018-10-18T04:19:34.947Z,8.90
2018-10-18T04:22:03.157Z,8.90
2018-10-18T04:24:31.431Z,9.20
2018-10-18T04:26:59.701Z,9.00
2018-10-18T04:29:28.137Z,8.80
2018-10-18T04:31:56.392Z,8.90
2018-10-18T04:34:24.695Z,9.00
2018-10-18T04:36:52.941Z,8.90
2018-10-18T04:39:21.165Z,8.70
2018-10-18T04:41:49.425Z,8.70
2018-10-18T04:44:17.668Z,8.60
2018-10-18T04:46:45.995Z,8.80
2018-10-18T04:49:14.192Z,8.70
2018-10-18T04:51:42.432Z,8.80
2018-10-18T04:54:10.651Z,9.00
2018-10-18T04:56:38.848Z,9.20
2018-10-18T04:59:07.038Z,9.30
2018-10-18T05:01:37.942Z,9.50
2018-10-18T05:04:06.248Z,9.60
2018-10-18T05:06:34.567Z,9.60
2018-10-18T05:09:03.069Z,9.40
2018-10-18T05:11:31.338Z,8.70
2018-10-18T05:13:59.525Z,8.50
2018-10-18T05:16:27.740Z,8.20
2018-10-18T05:18:55.974Z,8.10
2018-10-18T05:21:24.209Z,8.10
2018-10-18T05:23:52.500Z,8.10
2018-10-18T05:26:20.700Z,8.30
2018-10-18T05:28:48.967Z,8.20
2018-10-18T05:31:17.310Z,8.40
2018-10-18T05:33:45.690Z,8.60
2018-10-18T05:36:13.885Z,8.90
2018-10-18T05:38:42.163Z,9.10
2018-10-18T05:41:10.344Z,9.10
2018-10-18T05:43:38.529Z,8.70
2018-10-18T05:46:06.757Z,8.40
2018-10-18T05:48:34.965Z,8.20
2018-10-18T05:51:03.165Z,8.00
2018-10-18T05:53:31.421Z,8.00
2018-10-18T05:55:59.621Z,8.10
2018-10-18T05:58:27.847Z,8.00
2018-10-18T06:00:56.114Z,8.00
2018-10-18T06:03:24.348Z,8.00
2018-10-18T06:05:52.561Z,8.10
2018-10-18T06:08:20.869Z,8.30
2018-10-18T06:11:00.408Z,8.50
2018-10-18T06:13:28.704Z,8.40
2018-10-18T06:15:56.892Z,8.70
2018-10-18T06:18:25.096Z,8.50
2018-10-18T06:20:53.324Z,8.60
2018-10-18T06:23:21.577Z,8.80
2018-10-18T06:25:49.724Z,9.10
2018-10-18T06:28:17.916Z,9.40
2018-10-18T06:30:46.205Z,9.40
2018-10-18T06:33:14.601Z,9.00
2018-10-18T06:35:42.871Z,9.00
2018-10-18T06:38:11.100Z,9.50
2018-10-18T06:40:39.279Z,9.70
2018-10-18T06:43:07.543Z,9.90
2018-10-18T06:45:35.696Z,9.60
2018-10-18T06:48:04.302Z,9.40
2018-10-18T06:50:32.480Z,9.40
2018-10-18T06:53:00.972Z,9.60
2018-10-18T06:55:29.233Z,10.10
2018-10-18T06:57:57.520Z,10.20
2018-10-18T07:00:25.912Z,10.10
2018-10-18T07:02:54.092Z,10.20
2018-10-18T07:05:22.345Z,11.00
2018-10-18T07:07:52.149Z,10.90
2018-10-18T07:10:22.385Z,10.90
2018-10-18T07:12:56.043Z,10.60
2018-10-18T07:15:25.348Z,10.60
2018-10-18T07:17:54.488Z,10.80
2018-10-18T07:20:22.909Z,10.90
2018-10-18T07:22:51.112Z,11.20
2018-10-18T07:25:21.414Z,11.40
2018-10-18T07:27:51.280Z,11.30
2018-10-18T07:30:24.415Z,11.60
2018-10-18T07:32:52.961Z,11.40
2018-10-18T07:35:21.219Z,11.80
2018-10-18T07:37:49.492Z,12.20
2018-10-18T07:40:17.782Z,12.50
2018-10-18T07:42:46.053Z,13.10
2018-10-18T07:45:14.845Z,13.70
2018-10-18T07:47:43.664Z,14.30
2018-10-18T07:50:12.580Z,13.60
2018-10-18T07:52:41.098Z,13.50
2018-10-18T07:55:10.122Z,14.00
2018-10-18T07:57:38.371Z,14.30
2018-10-18T08:00:08.829Z,15.50
2018-10-18T08:02:37.103Z,16.50
2018-10-18T08:05:06.165Z,17.30
2018-10-18T08:07:34.600Z,17.60
2018-10-18T08:10:03.393Z,17.60
2018-10-18T08:12:31.937Z,16.90
2018-10-18T08:15:00.157Z,16.00
2018-10-18T08:17:28.499Z,15.50
2018-10-18T08:19:56.748Z,16.00
2018-10-18T08:22:25.010Z,17.00
2018-10-18T08:24:53.334Z,17.20
2018-10-18T08:27:21.576Z,17.80
2018-10-18T08:29:49.761Z,18.90
2018-10-18T08:32:17.949Z,19.50
2018-10-18T08:34:46.207Z,19.20
2018-10-18T08:37:14.482Z,18.40
2018-10-18T08:39:42.649Z,18.50
2018-10-18T08:42:10.855Z,18.30
2018-10-18T08:44:39.195Z,18.40
2018-10-18T08:47:07.472Z,18.20
2018-10-18T08:49:35.819Z,18.60
2018-10-18T08:52:04.228Z,18.80
2018-10-18T08:54:32.497Z,18.60
2018-10-18T08:57:00.727Z,19.40
2018-10-18T08:59:28.964Z,20.00
2018-10-18T09:01:57.150Z,19.50
2018-10-18T09:04:25.366Z,19.50
2018-10-18T09:06:53.646Z,19.30
2018-10-18T09:09:21.969Z,19.40
2018-10-18T09:11:50.303Z,19.10
2018-10-18T09:14:18.628Z,19.50
2018-10-18T09:16:46.839Z,19.80
2018-10-18T09:19:15.297Z,19.60
2018-10-18T09:21:43.580Z,19.50
2018-10-18T09:24:11.841Z,19.50
2018-10-18T09:26:40.163Z,19.50
2018-10-18T09:29:08.427Z,20.10
2018-10-18T09:31:36.727Z,20.10
2018-10-18T09:34:05.259Z,20.80
2018-10-18T09:36:33.472Z,20.00
2018-10-18T09:39:01.812Z,19.90
2018-10-18T09:41:29.977Z,19.90
2018-10-18T09:43:58.197Z,20.00
2018-10-18T09:46:26.621Z,20.50
2018-10-18T09:48:54.880Z,20.00
2018-10-18T09:51:23.096Z,19.80
2018-10-18T09:53:51.325Z,20.40
2018-10-18T09:56:19.898Z,20.80
2018-10-18T09:58:47.944Z,20.70
2018-10-18T10:01:21.719Z,20.20
2018-10-18T10:03:49.942Z,20.20
2018-10-18T10:06:18.223Z,20.40
2018-10-18T10:08:46.537Z,20.60
2018-10-18T10:11:15.038Z,20.40
2018-10-18T10:13:43.373Z,20.70
2018-10-18T10:16:11.493Z,20.70
2018-10-18T10:18:39.784Z,21.40
2018-10-18T10:21:08.060Z,22.40
2018-10-18T10:23:36.267Z,22.00
2018-10-18T10:26:04.665Z,20.70
2018-10-18T10:28:32.855Z,20.40
2018-10-18T10:31:01.103Z,20.80
2018-10-18T10:33:29.330Z,21.30
2018-10-18T10:36:00.341Z,21.30
2018-10-18T10:38:28.512Z,21.00
2018-10-18T10:40:56.962Z,21.20
2018-10-18T10:43:25.219Z,21.10
2018-10-18T10:45:53.628Z,21.90
2018-10-18T10:48:21.840Z,21.60
2018-10-18T10:50:50.102Z,21.40
2018-10-18T10:53:18.466Z,21.20
2018-10-18T10:55:46.861Z,21.00
2018-10-18T10:58:15.238Z,21.00
2018-10-18T11:01:20.332Z,20.90
2018-10-18T11:03:49.373Z,20.90
2018-10-18T11:06:17.625Z,21.40
2018-10-18T11:08:45.909Z,21.40
2018-10-18T11:11:15.072Z,21.40
2018-10-18T11:13:43.317Z,21.30
2018-10-18T11:16:11.558Z,21.40
2018-10-18T11:18:40.286Z,21.20
2018-10-18T11:21:10.033Z,21.40
2018-10-18T11:23:38.124Z,21.40
2018-10-18T11:26:06.442Z,21.90
2018-10-18T11:28:34.628Z,22.30
2018-10-18T11:31:02.957Z,21.80
2018-10-18T11:33:31.404Z,21.70
2018-10-18T11:35:59.697Z,22.90
2018-10-18T11:38:27.889Z,22.50
2018-10-18T11:40:56.128Z,23.10
2018-10-18T11:43:24.391Z,22.60
2018-10-18T11:45:52.588Z,22.00
2018-10-18T11:48:20.789Z,21.70
2018-10-18T11:50:49.012Z,21.70
2018-10-18T11:53:17.272Z,21.70
2018-10-18T11:55:45.538Z,21.80
2018-10-18T11:58:14.257Z,21.30
2018-10-18T12:00:42.545Z,21.50
2018-10-18T12:03:10.813Z,21.70
2018-10-18T12:05:39.087Z,21.50
2018-10-18T12:08:07.378Z,21.30
2018-10-18T12:10:35.638Z,22.00
2018-10-18T12:13:03.908Z,22.10
2018-10-18T12:15:32.189Z,21.50
2018-10-18T12:18:00.448Z,21.60
2018-10-18T12:20:28.752Z,22.10
2018-10-18T12:22:57.079Z,22.60
2018-10-18T12:25:25.294Z,23.00
2018-10-18T12:27:53.569Z,22.40
2018-10-18T12:30:21.852Z,22.90
2018-10-18T12:32:50.121Z,23.00
2018-10-18T12:35:18.579Z,23.40
2018-10-18T12:37:46.777Z,22.70
2018-10-18T12:40:15.095Z,23.20
2018-10-18T12:42:44.566Z,23.90
2018-10-18T12:45:13.329Z,23.40
2018-10-18T12:47:41.713Z,22.80
2018-10-18T12:50:10.344Z,22.20
2018-10-18T12:52:38.609Z,22.10
2018-10-18T12:55:07.128Z,23.20
2018-10-18T12:57:35.344Z,24.20
2018-10-18T13:00:03.667Z,24.20
2018-10-18T13:02:31.903Z,23.10
2018-10-18T13:05:00.177Z,22.30
2018-10-18T13:07:28.453Z,22.30
2018-10-18T13:09:56.704Z,22.80
2018-10-18T13:12:25.179Z,22.30
2018-10-18T13:14:53.281Z,21.90
2018-10-18T13:17:21.608Z,22.00
2018-10-18T13:19:49.848Z,21.80
2018-10-18T13:22:18.081Z,22.00
2018-10-18T13:24:46.406Z,22.30
2018-10-18T13:27:14.664Z,22.90
2018-10-18T13:29:42.956Z,22.80
2018-10-18T13:32:11.245Z,22.20
2018-10-18T13:34:39.472Z,21.60
2018-10-18T13:37:07.722Z,21.70
2018-10-18T13:39:35.966Z,21.70
2018-10-18T13:42:04.555Z,21.90
2018-10-18T13:44:32.797Z,22.60
2018-10-18T13:47:01.061Z,22.60
2018-10-18T13:49:29.484Z,21.70
2018-10-18T13:51:57.706Z,21.80
2018-10-18T13:54:25.925Z,21.80
2018-10-18T13:56:54.240Z,22.30
2018-10-18T13:59:33.950Z,22.20
2018-10-18T14:02:02.155Z,22.00
2018-10-18T14:04:30.306Z,21.90
2018-10-18T14:06:58.502Z,21.70
2018-10-18T14:09:26.702Z,22.30
2018-10-18T14:11:54.908Z,22.20
2018-10-18T14:14:23.106Z,22.00
2018-10-18T14:16:51.294Z,21.70
2018-10-18T14:19:19.595Z,21.40
2018-10-18T14:21:47.829Z,21.40
2018-10-18T14:24:16.041Z,21.50
2018-10-18T14:26:44.294Z,21.70
2018-10-18T14:29:12.565Z,21.90
2018-10-18T14:31:40.792Z,22.00
2018-10-18T14:34:09.423Z,21.70
2018-10-18T14:36:37.624Z,21.70
2018-10-18T14:39:07.365Z,21.20
2018-10-18T14:41:35.760Z,20.90
2018-10-18T14:44:04.125Z,20.60
2018-10-18T14:46:32.194Z,20.40
2018-10-18T14:49:00.543Z,20.30
2018-10-18T14:51:28.806Z,20.30
2018-10-18T14:53:57.007Z,20.50
2018-10-18T14:56:25.496Z,20.70
2018-10-18T14:58:53.798Z,20.60
2018-10-18T15:01:21.991Z,20.40
2018-10-18T15:03:50.212Z,20.50
2018-10-18T15:06:18.593Z,20.00
2018-10-18T15:08:46.837Z,19.70
2018-10-18T15:11:15.167Z,19.60
2018-10-18T15:13:43.382Z,19.50
2018-10-18T15:16:11.590Z,19.40
2018-10-18T15:18:39.785Z,19.40
2018-10-18T15:21:08.010Z,19.30
2018-10-18T15:23:36.193Z,19.40
2018-10-18T15:26:04.624Z,19.30
2018-10-18T15:28:32.804Z,19.50
2018-10-18T15:31:01.009Z,19.30
2018-10-18T15:33:29.170Z,19.10
2018-10-18T15:35:57.374Z,19.30
2018-10-18T15:38:25.739Z,19.30
2018-10-18T15:40:53.839Z,19.30
2018-10-18T15:43:21.953Z,19.50
2018-10-18T15:45:50.169Z,19.10
2018-10-18T15:48:18.360Z,18.90
2018-10-18T15:50:46.542Z,18.70
2018-10-18T15:53:14.950Z,19.00
2018-10-18T15:55:43.034Z,19.20
2018-10-18T15:58:11.239Z,18.80
2018-10-18T16:00:40.315Z,18.60
2018-10-18T16:03:08.598Z,18.60
2018-10-18T16:05:36.731Z,18.60
2018-10-18T16:08:05.182Z,18.30
2018-10-18T16:10:33.369Z,18.30
2018-10-18T16:13:01.680Z,18.10
2018-10-18T16:15:29.883Z,18.20
2018-10-18T16:17:58.393Z,18.30
2018-10-18T16:20:26.454Z,18.10
2018-10-18T16:22:54.687Z,18.00
2018-10-18T16:25:22.888Z,17.80
2018-10-18T16:27:51.317Z,17.50
2018-10-18T16:30:19.496Z,17.30
2018-10-18T16:32:47.718Z,17.40
2018-10-18T16:35:15.906Z,17.30
2018-10-18T16:37:44.190Z,17.40
2018-10-18T16:40:12.377Z,17.40
2018-10-18T16:42:40.553Z,17.40
2018-10-18T16:45:11.888Z,17.40
2018-10-18T16:47:40.074Z,17.20
2018-10-18T16:50:08.509Z,17.40
2018-10-18T16:52:36.673Z,17.40
2018-10-18T16:55:05.782Z,17.50
2018-10-18T16:57:34.009Z,17.30
2018-10-18T17:00:02.265Z,17.10
2018-10-18T17:02:30.462Z,16.80
2018-10-18T17:04:58.966Z,16.80
2018-10-18T17:07:27.148Z,16.90
2018-10-18T17:09:55.411Z,16.60
2018-10-18T17:12:23.558Z,16.60
2018-10-18T17:14:51.837Z,16.50
2018-10-18T17:17:20.102Z,16.30
2018-10-18T17:19:48.345Z,16.30
2018-10-18T17:22:16.583Z,16.50
2018-10-18T17:24:44.824Z,16.40
2018-10-18T17:27:13.401Z,16.30
2018-10-18T17:29:41.580Z,16.40
2018-10-18T17:32:09.806Z,16.40
2018-10-18T17:34:38.040Z,16.20
2018-10-18T17:37:06.457Z,16.20
2018-10-18T17:39:34.661Z,16.20
2018-10-18T17:42:02.888Z,16.20
2018-10-18T17:44:31.057Z,16.10
2018-10-18T17:46:59.272Z,16.20
2018-10-18T17:49:27.505Z,16.20
2018-10-18T17:51:55.781Z,16.00
2018-10-18T17:54:23.917Z,16.10
2018-10-18T17:56:52.225Z,16.00
2018-10-18T17:59:20.508Z,16.00
2018-10-18T18:01:48.717Z,15.50
2018-10-18T18:04:17.070Z,15.60
2018-10-18T18:06:45.367Z,15.60
2018-10-18T18:09:13.564Z,15.50
2018-10-18T18:11:41.892Z,15.50
2018-10-18T18:14:10.112Z,15.70
2018-10-18T18:16:38.328Z,15.70
2018-10-18T18:19:06.525Z,15.60
2018-10-18T18:21:34.761Z,15.10
2018-10-18T18:24:02.938Z,14.90
2018-10-18T18:26:45.074Z,14.80
2018-10-18T18:28:59.372Z,14.90
2018-10-18T18:31:27.668Z,14.70
2018-10-18T18:33:55.860Z,15.00
2018-10-18T18:36:24.021Z,14.90
2018-10-18T18:38:52.351Z,14.80
2018-10-18T18:41:20.513Z,14.90
2018-10-18T18:43:48.696Z,14.60
2018-10-18T18:46:16.900Z,14.50
2018-10-18T18:48:45.206Z,14.50
2018-10-18T18:51:13.554Z,14.30
2018-10-18T18:53:41.648Z,14.60
2018-10-18T18:56:09.809Z,14.80
2018-10-18T18:58:38.041Z,14.90
2018-10-18T19:01:06.207Z,14.70
2018-10-18T19:03:34.422Z,14.20
2018-10-18T19:06:02.636Z,14.10
2018-10-18T19:08:30.828Z,14.30
2018-10-18T19:10:58.988Z,14.30
2018-10-18T19:13:27.216Z,13.80
2018-10-18T19:15:55.443Z,13.90
2018-10-18T19:18:23.645Z,13.90
2018-10-18T19:20:51.871Z,13.70
2018-10-18T19:23:20.210Z,13.40
2018-10-18T19:25:48.413Z,13.70
2018-10-18T19:28:16.663Z,13.40
2018-10-18T19:30:44.893Z,13.50
2018-10-18T19:33:13.136Z,13.60
2018-10-18T19:35:41.341Z,13.50
2018-10-18T19:38:09.610Z,13.70
2018-10-18T19:40:37.736Z,13.80
2018-10-18T19:43:05.928Z,13.40
2018-10-18T19:45:34.320Z,13.10
2018-10-18T19:48:02.420Z,13.00
2018-10-18T19:50:30.600Z,13.00
2018-10-18T19:52:58.815Z,12.90
2018-10-18T19:55:26.963Z,13.20
2018-10-18T19:57:55.176Z,13.30
2018-10-18T20:00:23.351Z,13.20
2018-10-18T20:02:51.712Z,13.10
2018-10-18T20:05:20.043Z,13.20
2018-10-18T20:07:48.416Z,13.20
2018-10-18T20:10:16.550Z,13.30
2018-10-18T20:12:44.816Z,13.40
2018-10-18T20:15:13.022Z,13.30
2018-10-18T20:17:41.132Z,13.30
2018-10-18T20:20:10.362Z,13.20
2018-10-18T20:22:38.672Z,13.30
2018-10-18T20:25:07.716Z,13.30
2018-10-18T20:27:35.945Z,13.40
2018-10-18T20:30:04.695Z,13.30
2018-10-18T20:32:32.976Z,13.30
2018-10-18T20:35:01.266Z,13.20
2018-10-18T20:37:29.528Z,13.30
2018-10-18T20:39:57.737Z,13.40
2018-10-18T20:42:25.909Z,13.40
2018-10-18T20:44:54.339Z,13.20
2018-10-18T20:47:22.640Z,13.30
2018-10-18T20:49:50.784Z,13.20
2018-10-18T20:52:19.871Z,13.10
2018-10-18T20:54:48.049Z,13.10
2018-10-18T20:57:16.312Z,13.00
2018-10-18T20:59:44.457Z,13.00
2018-10-18T21:02:12.644Z,13.10
2018-10-18T21:04:40.816Z,13.10
2018-10-18T21:07:08.998Z,13.20
2018-10-18T21:09:37.273Z,13.20
2018-10-18T21:12:05.859Z,12.90
2018-10-18T21:14:34.079Z,13.00
2018-10-18T21:17:02.282Z,13.00
2018-10-18T21:19:30.441Z,13.00
2018-10-18T21:21:58.785Z,12.90
2018-10-18T21:24:27.019Z,13.00
2018-10-18T21:26:55.210Z,13.00
2018-10-18T21:29:23.409Z,12.90
2018-10-18T21:31:51.639Z,12.90
2018-10-18T21:34:19.961Z,13.00
2018-10-18T21:36:48.317Z,13.10
2018-10-18T21:39:29.744Z,13.00
2018-10-18T21:41:57.934Z,12.90
2018-10-18T21:44:27.957Z,12.80
2018-10-18T21:46:56.174Z,12.90
2018-10-18T21:49:24.423Z,13.00
2018-10-18T21:51:52.720Z,12.90
2018-10-18T21:54:20.918Z,12.70
2018-10-18T21:56:49.139Z,12.70
2018-10-18T21:59:17.732Z,12.70
2018-10-18T22:01:46.816Z,12.70
2018-10-18T22:04:15.488Z,12.60
2018-10-18T22:06:43.857Z,12.60
2018-10-18T22:09:12.091Z,12.60
2018-10-18T22:11:40.212Z,12.60
2018-10-18T22:14:09.149Z,12.50
2018-10-18T22:16:38.592Z,12.50
2018-10-18T22:19:08.006Z,12.60
2018-10-18T22:21:36.698Z,12.50
2018-10-18T22:24:05.233Z,12.60
2018-10-18T22:26:33.776Z,12.40
2018-10-18T22:29:02.044Z,12.50
2018-10-18T22:31:30.203Z,12.50
2018-10-18T22:33:58.394Z,12.50
2018-10-18T22:36:26.600Z,12.60
2018-10-18T22:38:55.056Z,12.60
2018-10-18T22:41:23.845Z,12.40
2018-10-18T22:43:52.024Z,12.30
2018-10-18T22:46:20.296Z,12.20
2018-10-18T22:48:48.557Z,12.30
2018-10-18T22:51:17.063Z,12.40
2018-10-18T22:53:45.301Z,12.40
2018-10-18T22:56:13.535Z,12.40
2018-10-18T22:58:41.772Z,12.40
2018-10-18T23:01:09.953Z,12.60
2018-10-18T23:03:38.236Z,12.60
2018-10-18T23:06:06.438Z,12.60
2018-10-18T23:08:34.654Z,12.40
2018-10-18T23:11:02.977Z,12.30
2018-10-18T23:13:31.311Z,12.40
2018-10-18T23:15:59.638Z,12.40
2018-10-18T23:18:27.846Z,12.50
2018-10-18T23:20:56.196Z,12.40
2018-10-18T23:23:24.376Z,12.30
2018-10-18T23:25:52.585Z,12.40
2018-10-18T23:28:20.773Z,12.50
2018-10-18T23:30:48.952Z,12.30
2018-10-18T23:33:17.158Z,12.10
2018-10-18T23:35:45.379Z,11.90
2018-10-18T23:38:13.584Z,11.80
2018-10-18T23:40:41.808Z,11.70
2018-10-18T23:43:10.020Z,11.80
2018-10-18T23:45:38.233Z,12.00
2018-10-18T23:48:06.561Z,12.00
2018-10-18T23:50:34.744Z,11.80
2018-10-18T23:53:03.012Z,11.90
2018-10-18T23:55:31.196Z,11.60
2018-10-18T23:57:59.419Z,11.60
